Time;durP1;ratioP1;P1;durP2;ratioP2;P2;SDS_P1;SDS_P2;PMS_P1;PMS_P2;Temp;Humidity;BMP_temperature;BMP_pressure;BME280_temperature;BME280_humidity;BME280_pressure;Samples;Min_cycle;Max_cycle;Signal;HPM_P1;HPM_P2
2023/04/21 00:02:14;;;;;;;;;;;10.70;87.10;;;;;;5110034;28;19916;-67
2023/04/21 00:04:40;;;;;;;;;;;10.80;87.20;;;;;;5110142;28;19907;-67
2023/04/21 00:07:05;;;;;;;;;;;10.70;87.30;;;;;;5110657;28;20379;-67
2023/04/21 00:09:31;;;;;;;;;;;10.70;87.30;;;;;;5110326;28;19915;-67
2023/04/21 00:11:56;;;;;;;;;;;10.70;87.30;;;;;;5109507;28;20697;-67
2023/04/21 00:14:22;;;;;;;;;;;10.70;87.30;;;;;;5108563;28;19918;-67
2023/04/21 00:16:51;;;;;;;;;;;10.70;88.00;;;;;;5110254;28;19912;-67
2023/04/21 00:19:19;;;;;;;;;;;10.70;87.50;;;;;;5109759;28;19951;-67
2023/04/21 00:21:45;;;;;;;;;;;10.70;87.60;;;;;;5103876;28;20277;-67
2023/04/21 00:24:10;;;;;;;;;;;10.60;87.40;;;;;;5089639;28;19912;-67
2023/04/21 00:26:36;;;;;;;;;;;10.60;87.70;;;;;;5088631;28;19908;-67
2023/04/21 00:29:01;;;;;;;;;;;10.60;87.50;;;;;;5089490;28;19908;-67
2023/04/21 00:31:27;;;;;;;;;;;10.60;87.70;;;;;;5088062;28;19912;-67
2023/04/21 00:33:52;;;;;;;;;;;10.60;87.70;;;;;;5087641;28;19922;-67
2023/04/21 00:36:18;;;;;;;;;;;10.60;87.90;;;;;;5089395;28;19908;-67
2023/04/21 00:38:43;;;;;;;;;;;10.60;87.90;;;;;;5089346;28;20296;-67
2023/04/21 00:41:09;;;;;;;;;;;10.60;87.90;;;;;;5099533;28;19918;-67
2023/04/21 00:43:35;;;;;;;;;;;10.60;88.00;;;;;;5107806;28;19995;-67
2023/04/21 00:46:00;;;;;;;;;;;10.50;88.10;;;;;;5109568;28;20004;-69
2023/04/21 00:48:26;;;;;;;;;;;10.50;88.20;;;;;;5107900;28;19964;-67
2023/04/21 00:50:51;;;;;;;;;;;10.50;88.30;;;;;;5109397;28;19946;-67
2023/04/21 00:53:18;;;;;;;;;;;10.50;88.40;;;;;;5090314;28;19919;-67
2023/04/21 00:55:44;;;;;;;;;;;10.50;88.80;;;;;;5089153;28;19915;-67
2023/04/21 00:58:10;;;;;;;;;;;10.50;88.90;;;;;;5104055;28;19943;-67
2023/04/21 01:00:36;;;;;;;;;;;10.50;88.50;;;;;;5108881;28;19970;-67
2023/04/21 01:03:03;;;;;;;;;;;10.50;88.70;;;;;;5108566;28;19924;-67
2023/04/21 01:05:29;;;;;;;;;;;10.50;88.80;;;;;;5109097;28;19915;-67
2023/04/21 01:07:55;;;;;;;;;;;10.50;88.80;;;;;;5109211;28;19935;-67
2023/04/21 01:10:20;;;;;;;;;;;10.50;88.90;;;;;;5109072;28;20262;-67
2023/04/21 01:12:46;;;;;;;;;;;10.50;88.80;;;;;;5109165;28;19918;-67
2023/04/21 01:15:13;;;;;;;;;;;10.50;89.00;;;;;;5109085;28;20018;-67
2023/04/21 01:17:39;;;;;;;;;;;10.40;88.90;;;;;;5109157;28;20437;-67
2023/04/21 01:20:08;;;;;;;;;;;10.40;88.80;;;;;;5108760;28;20473;-67
2023/04/21 01:22:36;;;;;;;;;;;10.40;89.00;;;;;;5108609;27;19920;-67
2023/04/21 01:25:02;;;;;;;;;;;10.40;89.10;;;;;;5108885;28;19954;-67
2023/04/21 01:27:27;;;;;;;;;;;10.40;89.20;;;;;;5109063;28;20671;-67
2023/04/21 01:29:53;;;;;;;;;;;10.40;89.50;;;;;;5108818;28;19987;-67
2023/04/21 01:32:20;;;;;;;;;;;10.40;89.40;;;;;;5102908;28;19915;-67
2023/04/21 01:34:46;;;;;;;;;;;10.40;89.10;;;;;;5088171;28;19912;-67
2023/04/21 01:37:14;;;;;;;;;;;10.40;89.70;;;;;;5088574;28;19916;-67
2023/04/21 01:39:40;;;;;;;;;;;10.40;89.40;;;;;;5092764;28;19908;-67
2023/04/21 01:42:05;;;;;;;;;;;10.30;89.30;;;;;;5143835;27;19912;-67
2023/04/21 01:44:31;;;;;;;;;;;10.30;89.30;;;;;;5112993;28;19919;-67
2023/04/21 01:46:57;;;;;;;;;;;10.30;89.50;;;;;;5113067;28;20667;-67
2023/04/21 01:49:22;;;;;;;;;;;10.30;89.50;;;;;;5111766;28;19947;-67
2023/04/21 01:51:48;;;;;;;;;;;10.30;89.30;;;;;;5106206;28;19995;-67
2023/04/21 01:54:13;;;;;;;;;;;10.30;89.80;;;;;;5092252;28;19915;-67
2023/04/21 01:56:39;;;;;;;;;;;10.30;89.60;;;;;;5092218;28;19908;-67
2023/04/21 01:59:04;;;;;;;;;;;10.30;89.80;;;;;;5105913;28;19990;-67
2023/04/21 02:01:30;;;;;;;;;;;10.30;89.70;;;;;;5112593;28;20559;-67
2023/04/21 02:03:55;;;;;;;;;;;10.30;89.50;;;;;;5112257;28;19968;-67
2023/04/21 02:06:21;;;;;;;;;;;10.30;89.80;;;;;;5112622;28;19919;-67
2023/04/21 02:08:46;;;;;;;;;;;10.20;89.60;;;;;;5112409;28;19923;-67
2023/04/21 02:11:12;;;;;;;;;;;10.20;89.70;;;;;;5112631;28;19915;-67
2023/04/21 02:13:37;;;;;;;;;;;10.20;89.80;;;;;;5112214;28;20364;-67
2023/04/21 02:16:03;;;;;;;;;;;10.20;89.90;;;;;;5112303;28;19919;-67
2023/04/21 02:18:29;;;;;;;;;;;10.20;89.70;;;;;;5112219;28;20010;-67
2023/04/21 02:20:55;;;;;;;;;;;10.20;90.10;;;;;;5112504;28;19968;-67
2023/04/21 02:23:20;;;;;;;;;;;10.20;89.80;;;;;;5092395;28;20534;-67
2023/04/21 02:25:46;;;;;;;;;;;10.20;89.70;;;;;;5090540;28;19912;-67
2023/04/21 02:28:12;;;;;;;;;;;10.20;89.90;;;;;;5091926;28;20627;-67
2023/04/21 02:30:37;;;;;;;;;;;10.20;89.80;;;;;;5091927;28;19918;-67
2023/04/21 02:33:03;;;;;;;;;;;10.10;89.80;;;;;;5091490;28;20365;-67
2023/04/21 02:35:28;;;;;;;;;;;10.20;89.80;;;;;;5091667;28;19962;-67
2023/04/21 02:37:54;;;;;;;;;;;10.20;89.80;;;;;;5090383;28;20245;-67
2023/04/21 02:40:20;;;;;;;;;;;10.20;90.00;;;;;;5094674;28;19911;-67
2023/04/21 02:42:45;;;;;;;;;;;10.10;89.50;;;;;;5111622;28;19954;-67
2023/04/21 02:45:11;;;;;;;;;;;10.10;89.80;;;;;;5111991;28;19939;-67
2023/04/21 02:47:36;;;;;;;;;;;10.10;89.80;;;;;;5111796;28;20347;-67
2023/04/21 02:50:03;;;;;;;;;;;10.10;89.90;;;;;;5109372;28;19915;-67
2023/04/21 02:52:28;;;;;;;;;;;10.10;89.80;;;;;;5111588;28;19938;-67
2023/04/21 02:54:53;;;;;;;;;;;10.10;90.20;;;;;;5111737;28;19912;-67
2023/04/21 02:57:19;;;;;;;;;;;10.10;90.00;;;;;;5111306;28;20254;-67
2023/04/21 02:59:45;;;;;;;;;;;10.10;90.00;;;;;;5109607;28;19958;-67
2023/04/21 03:02:10;;;;;;;;;;;10.10;90.00;;;;;;5111353;28;19922;-67
2023/04/21 03:04:36;;;;;;;;;;;10.10;90.00;;;;;;5111242;28;19919;-67
2023/04/21 03:07:02;;;;;;;;;;;10.00;90.00;;;;;;5109868;28;19938;-67
2023/04/21 03:09:27;;;;;;;;;;;10.10;90.10;;;;;;5108517;28;19912;-67
2023/04/21 03:11:53;;;;;;;;;;;10.00;90.10;;;;;;5110768;28;19953;-67
2023/04/21 03:14:18;;;;;;;;;;;10.00;90.10;;;;;;5110854;28;19908;-67
2023/04/21 03:16:44;;;;;;;;;;;10.00;90.20;;;;;;5109912;28;19918;-67
2023/04/21 03:19:09;;;;;;;;;;;10.00;90.10;;;;;;5111120;27;19916;-67
2023/04/21 03:21:36;;;;;;;;;;;10.00;90.10;;;;;;5111251;27;19908;-67
2023/04/21 03:24:01;;;;;;;;;;;10.00;90.10;;;;;;5111071;28;19922;-67
2023/04/21 03:26:27;;;;;;;;;;;10.00;90.10;;;;;;5111380;28;19912;-67
2023/04/21 03:28:52;;;;;;;;;;;10.00;90.30;;;;;;5110865;28;20029;-67
2023/04/21 03:31:18;;;;;;;;;;;10.00;90.20;;;;;;5110985;28;19956;-67
2023/04/21 03:33:43;;;;;;;;;;;10.00;90.30;;;;;;5110651;28;20387;-67
2023/04/21 03:36:09;;;;;;;;;;;10.00;90.20;;;;;;5110966;28;19908;-67
2023/04/21 03:38:34;;;;;;;;;;;10.00;90.30;;;;;;5110923;28;19912;-67
2023/04/21 03:40:59;;;;;;;;;;;10.00;90.30;;;;;;5110945;28;19916;-67
2023/04/21 03:43:25;;;;;;;;;;;10.00;90.20;;;;;;5110379;28;20068;-67
2023/04/21 03:45:51;;;;;;;;;;;10.00;90.20;;;;;;5110516;28;19912;-67
2023/04/21 03:48:16;;;;;;;;;;;10.00;90.40;;;;;;5110203;28;19912;-67
2023/04/21 03:50:41;;;;;;;;;;;9.90;90.30;;;;;;5110653;28;20003;-67
2023/04/21 03:53:07;;;;;;;;;;;9.90;90.30;;;;;;5092825;28;19912;-67
2023/04/21 03:55:32;;;;;;;;;;;9.90;90.30;;;;;;5090383;28;19916;-67
2023/04/21 03:57:58;;;;;;;;;;;9.90;90.30;;;;;;5101431;28;19918;-67
2023/04/21 04:00:23;;;;;;;;;;;9.90;90.30;;;;;;5109758;28;20770;-67
2023/04/21 04:02:49;;;;;;;;;;;9.90;90.30;;;;;;5110284;28;19911;-67
2023/04/21 04:05:15;;;;;;;;;;;9.90;90.40;;;;;;5108858;28;19951;-67
2023/04/21 04:07:40;;;;;;;;;;;9.90;90.40;;;;;;5109030;28;20030;-67
2023/04/21 04:10:06;;;;;;;;;;;9.90;90.40;;;;;;5110402;28;19954;-67
2023/04/21 04:12:31;;;;;;;;;;;9.90;90.50;;;;;;5109673;28;19908;-67
2023/04/21 04:14:57;;;;;;;;;;;9.90;90.40;;;;;;5109956;28;20061;-67
2023/04/21 04:17:22;;;;;;;;;;;9.90;90.60;;;;;;5110221;28;19958;-67
2023/04/21 04:19:48;;;;;;;;;;;9.80;90.50;;;;;;5110111;28;20339;-67
2023/04/21 04:22:13;;;;;;;;;;;9.80;90.50;;;;;;5098548;28;19912;-67
2023/04/21 04:24:39;;;;;;;;;;;9.80;90.40;;;;;;5089646;28;19931;-67
2023/04/21 04:27:05;;;;;;;;;;;9.80;90.80;;;;;;5089679;28;19912;-67
2023/04/21 04:29:31;;;;;;;;;;;9.80;90.60;;;;;;5089538;28;19978;-67
2023/04/21 04:31:57;;;;;;;;;;;9.80;90.70;;;;;;5089262;28;19912;-67
2023/04/21 04:34:22;;;;;;;;;;;9.80;90.60;;;;;;5089108;28;20662;-67
2023/04/21 04:36:49;;;;;;;;;;;9.80;90.60;;;;;;5089397;28;20060;-67
2023/04/21 04:39:15;;;;;;;;;;;9.80;90.60;;;;;;5089416;28;19940;-67
2023/04/21 04:41:40;;;;;;;;;;;9.80;90.70;;;;;;5103865;28;19914;-67
2023/04/21 04:44:06;;;;;;;;;;;9.80;90.60;;;;;;5107952;28;20369;-67
2023/04/21 04:46:32;;;;;;;;;;;9.80;90.70;;;;;;5109615;28;20371;-67
2023/04/21 04:48:59;;;;;;;;;;;9.70;90.60;;;;;;5109333;28;19911;-67
2023/04/21 04:51:24;;;;;;;;;;;9.80;90.70;;;;;;5106819;28;19920;-67
2023/04/21 04:53:50;;;;;;;;;;;9.80;90.70;;;;;;5109061;28;20059;-67
2023/04/21 04:56:15;;;;;;;;;;;9.70;90.60;;;;;;5109570;28;19918;-67
2023/04/21 04:58:41;;;;;;;;;;;9.80;90.80;;;;;;5107421;28;19916;-67
2023/04/21 05:01:13;;;;;;;;;;;9.70;90.70;;;;;;5109254;28;20453;-67
2023/04/21 05:03:38;;;;;;;;;;;9.70;90.90;;;;;;5108780;28;19970;-67
2023/04/21 05:06:04;;;;;;;;;;;9.70;90.70;;;;;;5109146;28;19947;-67
2023/04/21 05:08:29;;;;;;;;;;;9.70;90.80;;;;;;5107582;28;19916;-67
2023/04/21 05:10:55;;;;;;;;;;;9.70;90.90;;;;;;5107777;28;19915;-67
2023/04/21 05:13:20;;;;;;;;;;;9.70;90.90;;;;;;5108275;28;19918;-67
2023/04/21 05:15:46;;;;;;;;;;;9.70;90.80;;;;;;5107569;28;19934;-67
2023/04/21 05:18:11;;;;;;;;;;;9.70;90.90;;;;;;5107368;28;19964;-67
2023/04/21 05:20:39;;;;;;;;;;;9.70;90.90;;;;;;5108973;28;19919;-67
2023/04/21 05:23:05;;;;;;;;;;;9.70;90.90;;;;;;5091360;28;20637;-67
2023/04/21 05:31:37;;;;;;;;;;;9.70;91.00;;;;;;5102232;28;19915;-67
2023/04/21 05:34:03;;;;;;;;;;;9.70;91.00;;;;;;5108508;28;19935;-67
2023/04/21 05:36:29;;;;;;;;;;;9.60;91.00;;;;;;5108788;28;20635;-67
2023/04/21 05:38:54;;;;;;;;;;;9.70;91.10;;;;;;5108831;28;19907;-67
2023/04/21 05:41:21;;;;;;;;;;;9.70;91.00;;;;;;5108757;28;19918;-67
2023/04/21 05:43:46;;;;;;;;;;;9.60;91.00;;;;;;5108411;28;19915;-67
2023/04/21 05:46:12;;;;;;;;;;;9.60;90.90;;;;;;5108845;28;20541;-67
2023/04/21 05:48:39;;;;;;;;;;;9.60;91.00;;;;;;5108949;28;19921;-67
2023/04/21 05:51:11;;;;;;;;;;;9.60;91.00;;;;;;5108633;28;20284;-67
2023/04/21 05:53:37;;;;;;;;;;;9.60;91.00;;;;;;5088222;28;20269;-67
2023/04/21 05:56:03;;;;;;;;;;;9.60;91.00;;;;;;5088497;28;19973;-67
2023/04/21 05:58:28;;;;;;;;;;;9.60;91.10;;;;;;5097874;28;19916;-67
2023/04/21 06:00:54;;;;;;;;;;;9.60;91.10;;;;;;5108377;28;19996;-67
2023/04/21 06:03:19;;;;;;;;;;;9.60;91.10;;;;;;5108266;28;19938;-67
2023/04/21 06:05:46;;;;;;;;;;;9.60;91.10;;;;;;5108486;28;19930;-67
2023/04/21 06:08:11;;;;;;;;;;;9.60;91.10;;;;;;5108624;28;19912;-67
2023/04/21 06:10:37;;;;;;;;;;;9.60;91.00;;;;;;5108480;28;19911;-67
2023/04/21 06:13:02;;;;;;;;;;;9.60;91.10;;;;;;5108198;28;20015;-67
2023/04/21 06:15:28;;;;;;;;;;;9.70;91.10;;;;;;5107805;28;19926;-68
2023/04/21 06:17:56;;;;;;;;;;;9.70;91.00;;;;;;5107015;28;20020;-67
2023/04/21 06:20:22;;;;;;;;;;;9.70;91.20;;;;;;5106975;28;19919;-67
2023/04/21 06:22:47;;;;;;;;;;;9.70;91.10;;;;;;5108121;28;19916;-67
2023/04/21 06:25:13;;;;;;;;;;;9.80;91.10;;;;;;5111705;28;19957;-67
2023/04/21 06:27:38;;;;;;;;;;;9.80;91.00;;;;;;5112614;28;19943;-67
2023/04/21 06:30:04;;;;;;;;;;;9.80;91.20;;;;;;5112010;28;20360;-67
2023/04/21 06:32:30;;;;;;;;;;;9.80;91.10;;;;;;5111983;28;19908;-67
2023/04/21 06:34:55;;;;;;;;;;;9.80;91.20;;;;;;5111980;28;20342;-67
2023/04/21 06:37:21;;;;;;;;;;;9.80;91.20;;;;;;5110666;28;20006;-67
2023/04/21 06:39:46;;;;;;;;;;;9.80;91.20;;;;;;5111906;28;19911;-67
2023/04/21 06:42:11;;;;;;;;;;;9.90;91.20;;;;;;5111568;28;20425;-67
2023/04/21 06:44:37;;;;;;;;;;;9.90;91.30;;;;;;5111626;28;19912;-67
2023/04/21 06:47:03;;;;;;;;;;;9.90;91.20;;;;;;5110218;28;19911;-67
2023/04/21 06:49:28;;;;;;;;;;;9.90;91.30;;;;;;5111592;28;19911;-67
2023/04/21 06:51:54;;;;;;;;;;;9.90;91.20;;;;;;5111554;27;20265;-67
2023/04/21 06:54:20;;;;;;;;;;;10.00;91.20;;;;;;5111565;28;19998;-67
2023/04/21 06:56:45;;;;;;;;;;;10.00;91.10;;;;;;5110038;28;20007;-67
2023/04/21 06:59:11;;;;;;;;;;;10.00;91.10;;;;;;5106724;28;19965;-67
2023/04/21 07:01:36;;;;;;;;;;;10.00;91.00;;;;;;5110181;28;19957;-67
2023/04/21 07:04:02;;;;;;;;;;;10.10;91.00;;;;;;5110949;28;19977;-67
2023/04/21 07:06:28;;;;;;;;;;;10.10;91.00;;;;;;5111674;28;19912;-67
2023/04/21 07:08:53;;;;;;;;;;;10.10;91.00;;;;;;5111413;28;20296;-67
2023/04/21 07:11:19;;;;;;;;;;;10.10;90.90;;;;;;5111042;28;19912;-67
2023/04/21 07:13:45;;;;;;;;;;;10.20;90.90;;;;;;5110916;27;20019;-67
2023/04/21 07:16:10;;;;;;;;;;;10.20;90.90;;;;;;5111555;28;20382;-67
2023/04/21 07:18:38;;;;;;;;;;;10.20;90.90;;;;;;5111094;28;20662;-67
2023/04/21 07:21:03;;;;;;;;;;;10.20;90.80;;;;;;5110029;28;19916;-67
2023/04/21 07:23:29;;;;;;;;;;;10.30;90.80;;;;;;5111046;28;20386;-67
2023/04/21 07:25:54;;;;;;;;;;;10.30;90.80;;;;;;5111327;28;20260;-67
2023/04/21 07:28:20;;;;;;;;;;;10.40;90.80;;;;;;5111080;28;19956;-67
2023/04/21 07:30:45;;;;;;;;;;;10.40;90.80;;;;;;5110948;28;20341;-67
2023/04/21 07:33:11;;;;;;;;;;;10.40;90.70;;;;;;5110958;28;19918;-67
2023/04/21 07:35:36;;;;;;;;;;;10.50;90.70;;;;;;5110307;28;19950;-67
2023/04/21 07:38:02;;;;;;;;;;;10.50;90.70;;;;;;5110980;28;19911;-67
2023/04/21 07:40:29;;;;;;;;;;;10.50;90.60;;;;;;5109435;28;19912;-67
2023/04/21 07:42:55;;;;;;;;;;;10.60;90.60;;;;;;5110468;28;19916;-67
2023/04/21 07:45:20;;;;;;;;;;;10.60;90.70;;;;;;5110549;28;19975;-67
2023/04/21 07:47:46;;;;;;;;;;;10.70;90.60;;;;;;5110832;27;19953;-67
2023/04/21 07:50:11;;;;;;;;;;;10.70;90.50;;;;;;5110580;28;19962;-67
2023/04/21 07:52:37;;;;;;;;;;;10.80;90.50;;;;;;5097211;28;19919;-67
2023/04/21 07:55:02;;;;;;;;;;;10.80;90.40;;;;;;5088974;28;19912;-67
2023/04/21 07:57:30;;;;;;;;;;;10.80;90.40;;;;;;5091233;28;19919;-67
2023/04/21 07:59:56;;;;;;;;;;;10.90;90.30;;;;;;5110196;28;19911;-68
2023/04/21 08:02:22;;;;;;;;;;;10.90;90.30;;;;;;5110347;28;20075;-67
2023/04/21 08:04:47;;;;;;;;;;;11.00;90.30;;;;;;5106737;28;20348;-67
2023/04/21 08:07:14;;;;;;;;;;;11.00;90.30;;;;;;5110404;28;20006;-67
2023/04/21 08:09:39;;;;;;;;;;;11.00;90.20;;;;;;5109110;28;19915;-67
2023/04/21 08:12:05;;;;;;;;;;;11.10;90.30;;;;;;5110100;28;19912;-67
2023/04/21 08:14:31;;;;;;;;;;;11.10;90.30;;;;;;5109930;28;20024;-67
2023/04/21 08:16:57;;;;;;;;;;;11.10;90.20;;;;;;5110214;28;19922;-67
2023/04/21 08:19:23;;;;;;;;;;;11.10;90.30;;;;;;5109822;27;19919;-67
2023/04/21 08:21:49;;;;;;;;;;;11.10;90.20;;;;;;5103318;28;20353;-67
2023/04/21 08:24:14;;;;;;;;;;;11.20;90.10;;;;;;5087995;28;20023;-67
2023/04/21 08:26:40;;;;;;;;;;;11.20;90.20;;;;;;5100027;28;20494;-67
2023/04/21 08:29:08;;;;;;;;;;;11.20;90.10;;;;;;5108418;28;20356;-67
2023/04/21 08:31:34;;;;;;;;;;;11.20;90.10;;;;;;5110026;27;19919;-67
2023/04/21 08:34:00;;;;;;;;;;;11.20;90.10;;;;;;5109430;28;19916;-67
2023/04/21 08:36:26;;;;;;;;;;;11.30;90.20;;;;;;5109683;28;19912;-68
2023/04/21 08:38:51;;;;;;;;;;;11.30;90.20;;;;;;5109618;28;20634;-67
2023/04/21 08:41:18;;;;;;;;;;;11.30;90.10;;;;;;5109312;28;19918;-67
2023/04/21 08:43:43;;;;;;;;;;;11.30;90.10;;;;;;5109137;28;19916;-67
2023/04/21 08:46:11;;;;;;;;;;;11.40;90.00;;;;;;5109725;28;19911;-68
2023/04/21 08:48:37;;;;;;;;;;;11.40;90.00;;;;;;5107333;28;19915;-67
2023/04/21 08:51:03;;;;;;;;;;;11.40;90.00;;;;;;5109560;28;19918;-67
2023/04/21 08:53:28;;;;;;;;;;;11.50;90.10;;;;;;5088775;28;19908;-67
2023/04/21 08:55:55;;;;;;;;;;;11.50;90.10;;;;;;5089267;28;20007;-67
2023/04/21 08:58:23;;;;;;;;;;;11.50;90.30;;;;;;5103359;28;19911;-68
2023/04/21 09:00:49;;;;;;;;;;;11.50;90.20;;;;;;5109097;28;20330;-67
2023/04/21 09:03:20;;;;;;;;;;;11.50;90.10;;;;;;5109098;28;19923;-67
2023/04/21 09:05:55;;;;;;;;;;;11.50;90.20;;;;;;5109002;28;19918;-68
2023/04/21 09:08:21;;;;;;;;;;;11.60;90.10;;;;;;5107965;28;19912;-67
2023/04/21 09:10:50;;;;;;;;;;;11.60;90.00;;;;;;5109350;28;19995;-67
2023/04/21 09:13:16;;;;;;;;;;;11.60;90.10;;;;;;5108878;28;19947;-67
2023/04/21 09:15:46;;;;;;;;;;;11.60;90.00;;;;;;5109040;28;20321;-67
2023/04/21 09:18:13;;;;;;;;;;;11.70;90.10;;;;;;5108392;28;19912;-68
2023/04/21 09:20:38;;;;;;;;;;;11.70;90.00;;;;;;5108748;28;19926;-67
2023/04/21 09:23:05;;;;;;;;;;;11.70;89.90;;;;;;5091617;28;20265;-67
2023/04/21 09:25:31;;;;;;;;;;;11.70;90.10;;;;;;5088701;28;20737;-67
2023/04/21 09:27:58;;;;;;;;;;;11.80;90.00;;;;;;5088865;28;19949;-67
2023/04/21 09:30:24;;;;;;;;;;;11.80;90.10;;;;;;5088675;28;19965;-67
2023/04/21 09:32:50;;;;;;;;;;;11.80;90.00;;;;;;5087283;28;19908;-67
2023/04/21 09:35:15;;;;;;;;;;;11.80;89.90;;;;;;5088478;28;19919;-68
2023/04/21 09:37:44;;;;;;;;;;;11.80;89.80;;;;;;5087329;28;20015;-67
2023/04/21 09:40:11;;;;;;;;;;;11.90;90.00;;;;;;5090290;28;19908;-67
2023/04/21 09:42:37;;;;;;;;;;;11.90;90.10;;;;;;5108669;28;19916;-67
2023/04/21 09:45:03;;;;;;;;;;;11.90;90.00;;;;;;5108681;28;19919;-67
2023/04/21 09:47:30;;;;;;;;;;;11.90;90.00;;;;;;5108574;28;20392;-67
2023/04/21 09:49:56;;;;;;;;;;;11.90;90.00;;;;;;5108450;28;19912;-67
2023/04/21 09:52:23;;;;;;;;;;;11.90;90.00;;;;;;5107780;28;19955;-67
2023/04/21 09:54:50;;;;;;;;;;;11.90;90.00;;;;;;5123606;27;19911;-67
2023/04/21 09:57:25;;;;;;;;;;;12.00;90.20;;;;;;5112113;27;19908;-68
2023/04/21 09:59:55;;;;;;;;;;;12.00;90.00;;;;;;5111137;28;19960;-67
2023/04/21 10:02:23;;;;;;;;;;;12.00;89.80;;;;;;5111428;28;19947;-67
2023/04/21 10:04:49;;;;;;;;;;;12.10;90.20;;;;;;5112391;28;20010;-67
2023/04/21 10:07:15;;;;;;;;;;;12.10;90.10;;;;;;5112838;28;20558;-68
2023/04/21 10:09:43;;;;;;;;;;;12.10;90.00;;;;;;5112761;28;19915;-67
2023/04/21 10:12:10;;;;;;;;;;;12.10;90.00;;;;;;5112664;28;19908;-67
2023/04/21 10:14:35;;;;;;;;;;;12.10;90.00;;;;;;5112360;28;19943;-67
2023/04/21 10:17:05;;;;;;;;;;;12.10;90.10;;;;;;5112562;28;20575;-67
2023/04/21 10:19:35;;;;;;;;;;;12.10;90.00;;;;;;5111907;27;19919;-67
2023/04/21 10:22:00;;;;;;;;;;;12.10;90.00;;;;;;5112108;28;20292;-67
2023/04/21 10:24:29;;;;;;;;;;;12.20;90.00;;;;;;5112263;28;19916;-67
2023/04/21 10:27:01;;;;;;;;;;;12.20;90.00;;;;;;5112687;28;19912;-67
2023/04/21 10:29:30;;;;;;;;;;;12.20;89.80;;;;;;5112350;28;20324;-67
2023/04/21 10:31:55;;;;;;;;;;;12.30;89.70;;;;;;5112407;28;19911;-68
2023/04/21 10:34:41;;;;;;;;;;;12.40;89.80;;;;;;5110805;28;20016;-68
2023/04/21 10:37:09;;;;;;;;;;;12.40;89.60;;;;;;5112103;28;20273;-67
2023/04/21 10:39:36;;;;;;;;;;;12.40;89.50;;;;;;5110843;28;20004;-67
2023/04/21 10:42:23;;;;;;;;;;;12.40;89.50;;;;;;5111789;28;20045;-68
2023/04/21 10:44:52;;;;;;;;;;;12.50;89.80;;;;;;5112010;28;19916;-67
2023/04/21 10:47:25;;;;;;;;;;;12.50;89.60;;;;;;5111977;28;20541;-68
2023/04/21 10:49:51;;;;;;;;;;;12.50;89.50;;;;;;5111373;28;20433;-67
2023/04/21 10:52:18;;;;;;;;;;;12.50;89.60;;;;;;5111444;28;20006;-67
2023/04/21 10:54:44;;;;;;;;;;;12.50;89.70;;;;;;5111877;28;19954;-68
2023/04/21 10:57:11;;;;;;;;;;;12.50;89.70;;;;;;5106966;28;20002;-67
2023/04/21 10:59:36;;;;;;;;;;;12.50;89.60;;;;;;5110646;28;19916;-67
2023/04/21 11:02:03;;;;;;;;;;;12.50;89.50;;;;;;5111674;28;19916;-67
2023/04/21 11:04:30;;;;;;;;;;;12.50;89.50;;;;;;5111316;28;20488;-67
2023/04/21 11:07:10;;;;;;;;;;;12.50;89.40;;;;;;5110356;28;20007;-67
2023/04/21 11:09:36;;;;;;;;;;;12.50;89.40;;;;;;5111791;28;20341;-67
2023/04/21 11:12:06;;;;;;;;;;;12.60;89.30;;;;;;5110543;28;19982;-68
2023/04/21 11:14:32;;;;;;;;;;;12.60;89.20;;;;;;5111329;28;19916;-67
2023/04/21 11:16:57;;;;;;;;;;;12.60;89.20;;;;;;5110056;28;19912;-67
2023/04/21 11:19:24;;;;;;;;;;;12.70;88.90;;;;;;5110998;28;19935;-67
2023/04/21 11:21:51;;;;;;;;;;;12.80;88.80;;;;;;5100420;28;19931;-67
2023/04/21 11:24:17;;;;;;;;;;;12.90;88.90;;;;;;5090933;28;19967;-67
2023/04/21 11:26:43;;;;;;;;;;;13.00;88.50;;;;;;5094205;28;19943;-67
2023/04/21 11:29:09;;;;;;;;;;;13.10;88.40;;;;;;5109634;28;19946;-67
2023/04/21 11:31:36;;;;;;;;;;;13.20;88.70;;;;;;5109937;28;19912;-67
2023/04/21 11:34:04;;;;;;;;;;;13.30;88.50;;;;;;5110631;28;19912;-67
2023/04/21 11:36:39;;;;;;;;;;;13.40;87.90;;;;;;5110973;28;19995;-67
2023/04/21 11:39:09;;;;;;;;;;;13.50;87.30;;;;;;5109843;28;20010;-67
2023/04/21 11:41:35;;;;;;;;;;;13.60;87.50;;;;;;5110930;28;19984;-68
2023/04/21 11:44:01;;;;;;;;;;;13.60;87.50;;;;;;5110701;28;20291;-68
2023/04/21 11:46:27;;;;;;;;;;;13.70;87.30;;;;;;5110983;28;19911;-67
2023/04/21 11:49:05;;;;;;;;;;;13.70;87.10;;;;;;5110690;28;19960;-67
2023/04/21 11:51:38;;;;;;;;;;;13.80;87.20;;;;;;5102689;28;20584;-68
2023/04/21 11:54:04;;;;;;;;;;;13.80;87.40;;;;;;5090256;28;19916;-68
2023/04/21 11:56:33;;;;;;;;;;;13.80;87.20;;;;;;5090390;28;19908;-68
2023/04/21 11:58:58;;;;;;;;;;;13.80;87.10;;;;;;5103924;28;19912;-68
2023/04/21 12:01:25;;;;;;;;;;;13.90;87.10;;;;;;5110439;28;19998;-67
2023/04/21 12:03:54;;;;;;;;;;;13.90;86.90;;;;;;5107941;28;20516;-67
2023/04/21 12:06:23;;;;;;;;;;;14.00;87.10;;;;;;5110543;28;19907;-67
2023/04/21 12:08:58;;;;;;;;;;;14.00;87.10;;;;;;5108998;28;20356;-68
2023/04/21 12:11:25;;;;;;;;;;;14.00;87.00;;;;;;5110373;28;19912;-68
2023/04/21 12:13:51;;;;;;;;;;;14.00;86.90;;;;;;5109860;27;19912;-68
2023/04/21 12:16:17;;;;;;;;;;;14.10;87.00;;;;;;5108919;28;19912;-67
2023/04/21 12:18:43;;;;;;;;;;;14.20;86.70;;;;;;5110040;28;19907;-68
2023/04/21 12:21:08;;;;;;;;;;;14.30;86.60;;;;;;5109986;28;20399;-68
2023/04/21 12:23:34;;;;;;;;;;;14.30;86.30;;;;;;5109888;28;19951;-68
2023/04/21 12:26:00;;;;;;;;;;;14.30;86.80;;;;;;5109916;28;20002;-68
2023/04/21 12:28:25;;;;;;;;;;;14.40;86.60;;;;;;5109715;28;19950;-68
2023/04/21 12:30:51;;;;;;;;;;;14.40;86.80;;;;;;5109674;28;19923;-68
2023/04/21 12:33:16;;;;;;;;;;;14.50;86.60;;;;;;5109630;28;19908;-69
2023/04/21 12:35:42;;;;;;;;;;;14.60;86.40;;;;;;5109922;28;20019;-68
2023/04/21 12:38:08;;;;;;;;;;;14.70;86.50;;;;;;5108582;28;19964;-68
2023/04/21 12:40:34;;;;;;;;;;;14.80;86.10;;;;;;5109790;28;19966;-68
2023/04/21 12:42:59;;;;;;;;;;;14.90;86.40;;;;;;5109495;28;19916;-68
2023/04/21 12:45:25;;;;;;;;;;;15.00;85.80;;;;;;5109230;28;19961;-68
2023/04/21 12:47:50;;;;;;;;;;;15.00;85.70;;;;;;5109731;28;19912;-68
2023/04/21 12:50:16;;;;;;;;;;;15.00;85.70;;;;;;5109571;28;19911;-68
2023/04/21 12:52:41;;;;;;;;;;;15.10;85.80;;;;;;5109340;28;19938;-68
2023/04/21 12:55:07;;;;;;;;;;;15.20;85.70;;;;;;5109600;28;19956;-68
2023/04/21 12:57:33;;;;;;;;;;;15.20;85.50;;;;;;5103530;28;20027;-68
2023/04/21 12:59:59;;;;;;;;;;;15.30;85.50;;;;;;5109048;28;19922;-68
2023/04/21 13:02:24;;;;;;;;;;;15.30;85.60;;;;;;5109028;28;19954;-68
2023/04/21 13:04:50;;;;;;;;;;;15.40;85.40;;;;;;5109183;28;20340;-68
2023/04/21 13:07:19;;;;;;;;;;;15.40;85.20;;;;;;5109484;28;19919;-68
2023/04/21 13:09:45;;;;;;;;;;;15.40;85.30;;;;;;5107909;28;19996;-68
2023/04/21 13:12:11;;;;;;;;;;;15.40;85.20;;;;;;5107578;28;20003;-68
2023/04/21 13:14:36;;;;;;;;;;;15.50;85.30;;;;;;5109024;28;19958;-68
2023/04/21 13:17:02;;;;;;;;;;;15.50;85.40;;;;;;5109266;28;19912;-68
2023/04/21 13:19:28;;;;;;;;;;;15.60;85.30;;;;;;5109008;28;19927;-68
2023/04/21 13:21:53;;;;;;;;;;;15.60;85.40;;;;;;5097716;28;19912;-68
2023/04/21 13:24:19;;;;;;;;;;;15.60;85.30;;;;;;5087323;28;20289;-69
2023/04/21 13:26:44;;;;;;;;;;;15.50;85.30;;;;;;5088866;28;19908;-68
2023/04/21 13:29:10;;;;;;;;;;;15.60;85.50;;;;;;5088702;28;20369;-68
2023/04/21 13:31:35;;;;;;;;;;;15.60;85.60;;;;;;5088873;28;19920;-68
2023/04/21 13:34:01;;;;;;;;;;;15.60;85.50;;;;;;5089477;28;19912;-68
2023/04/21 13:36:27;;;;;;;;;;;15.60;85.40;;;;;;5109224;28;19911;-68
2023/04/21 13:38:54;;;;;;;;;;;15.60;85.50;;;;;;5109218;28;19908;-68
2023/04/21 13:41:20;;;;;;;;;;;15.70;85.60;;;;;;5109003;28;19949;-68
2023/04/21 13:43:45;;;;;;;;;;;15.70;85.40;;;;;;5108452;28;19916;-68
2023/04/21 13:46:12;;;;;;;;;;;15.70;85.80;;;;;;5109003;28;19912;-68
2023/04/21 13:48:38;;;;;;;;;;;15.90;85.50;;;;;;5108894;28;19934;-68
2023/04/21 13:51:03;;;;;;;;;;;15.90;85.50;;;;;;5103411;28;19912;-68
2023/04/21 13:53:29;;;;;;;;;;;16.00;85.20;;;;;;5086892;28;19908;-68
2023/04/21 13:55:56;;;;;;;;;;;16.10;85.60;;;;;;5088712;28;19999;-68
2023/04/21 13:58:21;;;;;;;;;;;16.20;85.10;;;;;;5095738;28;20057;-68
2023/04/21 14:00:47;;;;;;;;;;;16.30;84.60;;;;;;5108652;28;19998;-68
2023/04/21 14:03:12;;;;;;;;;;;16.40;84.60;;;;;;5108553;28;20364;-68
2023/04/21 14:05:38;;;;;;;;;;;16.50;84.50;;;;;;5107404;28;19911;-68
2023/04/21 14:08:03;;;;;;;;;;;16.60;84.40;;;;;;5108791;28;19919;-68
2023/04/21 14:10:30;;;;;;;;;;;16.70;84.30;;;;;;5109001;28;19912;-69
2023/04/21 14:12:55;;;;;;;;;;;16.80;84.40;;;;;;5108727;28;19914;-68
2023/04/21 14:15:21;;;;;;;;;;;16.90;83.50;;;;;;5108648;28;19912;-69
2023/04/21 14:17:46;;;;;;;;;;;17.00;83.70;;;;;;5109013;28;19942;-69
2023/04/21 14:20:12;;;;;;;;;;;17.10;83.60;;;;;;5108465;28;20000;-69